createdAt,value
2018-06-14T00:00:27.383Z,14.46
2018-06-14T00:02:54.621Z,14.46
2018-06-14T00:05:21.920Z,14.51
2018-06-14T00:07:49.221Z,14.52
2018-06-14T00:10:16.497Z,14.52
2018-06-14T00:12:43.760Z,14.58
2018-06-14T00:15:11.087Z,14.64
2018-06-14T00:17:38.379Z,14.70
2018-06-14T00:20:06.851Z,14.72
2018-06-14T00:22:34.133Z,14.73
2018-06-14T00:25:01.396Z,14.66
2018-06-14T00:27:28.669Z,14.52
2018-06-14T00:29:55.928Z,14.49
2018-06-14T00:32:23.261Z,14.48
2018-06-14T00:34:50.529Z,14.56
2018-06-14T00:37:17.830Z,14.59
2018-06-14T00:39:45.190Z,14.49
2018-06-14T00:42:12.425Z,14.46
2018-06-14T00:44:39.789Z,14.30
2018-06-14T00:47:07.165Z,14.34
2018-06-14T00:49:34.495Z,14.41
2018-06-14T00:52:01.864Z,14.46
2018-06-14T00:54:29.246Z,14.49
2018-06-14T00:57:07.913Z,14.54
2018-06-14T00:59:35.218Z,14.51
2018-06-14T01:02:02.540Z,14.58
2018-06-14T01:04:29.836Z,14.52
2018-06-14T01:06:57.072Z,14.55
2018-06-14T01:09:24.427Z,14.39
2018-06-14T01:11:51.675Z,14.33
2018-06-14T01:14:18.960Z,14.29
2018-06-14T01:16:46.304Z,14.34
2018-06-14T01:19:13.705Z,14.39
2018-06-14T01:21:40.982Z,14.43
2018-06-14T01:24:08.490Z,14.45
2018-06-14T01:26:35.745Z,14.47
2018-06-14T01:29:03.026Z,14.49
2018-06-14T01:31:30.394Z,14.44
2018-06-14T01:33:57.703Z,14.32
2018-06-14T01:36:24.980Z,14.33
2018-06-14T01:38:52.230Z,14.36
2018-06-14T01:41:19.514Z,14.31
2018-06-14T01:43:46.769Z,14.37
2018-06-14T01:46:14.038Z,14.46
2018-06-14T01:48:41.350Z,14.44
2018-06-14T01:51:08.734Z,14.35
2018-06-14T01:53:36.004Z,14.37
2018-06-14T01:56:03.274Z,14.45
2018-06-14T01:58:30.553Z,14.46
2018-06-14T03:17:01.394Z,13.56
2018-06-14T03:19:28.638Z,13.40
2018-06-14T03:21:55.956Z,13.39
2018-06-14T03:24:23.290Z,13.51
2018-06-14T03:26:50.654Z,13.61
2018-06-14T03:29:17.972Z,13.68
2018-06-14T03:31:45.222Z,13.78
2018-06-14T03:34:12.543Z,13.83
2018-06-14T03:36:39.935Z,13.90
2018-06-14T03:39:08.158Z,13.98
2018-06-14T03:41:35.422Z,13.98
2018-06-14T03:44:02.800Z,13.99
2018-06-14T03:46:30.166Z,14.02
2018-06-14T03:48:57.505Z,14.07
2018-06-14T03:51:24.834Z,14.11
2018-06-14T03:53:52.110Z,14.13
2018-06-14T03:56:19.434Z,14.11
2018-06-14T03:58:46.736Z,14.13
2018-06-14T04:01:14.015Z,14.13
2018-06-14T04:03:41.417Z,14.19
2018-06-14T04:06:08.770Z,14.20
2018-06-14T04:08:36.189Z,14.08
2018-06-14T04:11:03.473Z,14.08
2018-06-14T04:13:30.735Z,13.95
2018-06-14T04:15:58.229Z,13.85
2018-06-14T04:18:25.546Z,13.97
2018-06-14T04:20:52.854Z,14.08
2018-06-14T04:23:20.213Z,14.05
2018-06-14T04:25:47.465Z,14.15
2018-06-14T04:28:14.688Z,14.24
2018-06-14T04:30:41.953Z,14.29
2018-06-14T04:33:09.136Z,13.73
2018-06-14T04:35:36.332Z,13.52
2018-06-14T04:38:03.602Z,13.66
2018-06-14T04:40:30.964Z,13.90
2018-06-14T04:42:58.182Z,14.07
2018-06-14T04:45:25.579Z,14.25
2018-06-14T04:47:52.789Z,14.31
2018-06-14T04:50:20.143Z,14.38
2018-06-14T04:52:47.544Z,14.41
2018-06-14T04:55:14.752Z,14.48
2018-06-14T04:57:42.099Z,14.43
2018-06-14T05:00:09.644Z,14.26
2018-06-14T05:02:36.950Z,14.19
2018-06-14T05:05:04.722Z,14.13
2018-06-14T05:07:32.028Z,14.34
2018-06-14T05:09:59.388Z,14.47
2018-06-14T05:12:26.595Z,14.56
2018-06-14T05:14:54.418Z,14.66
2018-06-14T05:17:21.786Z,14.69
2018-06-14T05:19:49.071Z,14.64
2018-06-14T05:22:16.368Z,14.70
2018-06-14T05:24:43.779Z,14.87
2018-06-14T05:27:11.133Z,14.85
2018-06-14T05:29:38.500Z,14.94
2018-06-14T05:32:05.713Z,14.93
2018-06-14T05:34:33.077Z,14.95
2018-06-14T05:37:00.417Z,15.03
2018-06-14T05:39:27.676Z,15.10
2018-06-14T05:41:54.965Z,15.12
2018-06-14T05:44:22.246Z,15.14
2018-06-14T05:46:49.534Z,15.03
2018-06-14T05:49:16.788Z,15.16
2018-06-14T05:51:44.093Z,15.17
2018-06-14T05:54:11.533Z,15.21
2018-06-14T05:56:38.844Z,15.37
2018-06-14T05:59:06.207Z,15.46
2018-06-14T06:01:33.489Z,15.61
2018-06-14T06:04:00.816Z,15.50
2018-06-14T06:06:28.194Z,15.50
2018-06-14T06:08:55.427Z,15.61
2018-06-14T06:11:22.708Z,15.77
2018-06-14T06:13:49.957Z,15.78
2018-06-14T06:16:17.245Z,15.83
2018-06-14T06:18:44.531Z,15.89
2018-06-14T06:21:11.843Z,16.10
2018-06-14T06:23:39.074Z,16.31
2018-06-14T06:26:06.459Z,16.25
2018-06-14T06:28:33.640Z,16.18
2018-06-14T06:31:01.000Z,16.25
2018-06-14T06:33:28.465Z,16.42
2018-06-14T06:35:55.666Z,16.58
2018-06-14T06:38:22.920Z,16.83
2018-06-14T06:40:50.327Z,17.03
2018-06-14T06:43:17.521Z,17.13
2018-06-14T06:45:44.947Z,17.02
2018-06-14T06:48:12.271Z,16.83
2018-06-14T06:50:39.681Z,17.06
2018-06-14T06:53:06.969Z,17.13
2018-06-14T06:55:34.199Z,17.34
2018-06-14T06:58:01.544Z,17.34
2018-06-14T07:00:28.798Z,17.34
2018-06-14T07:05:24.816Z,17.59
2018-06-14T07:10:45.169Z,17.67
2018-06-14T07:13:12.449Z,18.00
2018-06-14T07:15:39.693Z,18.30
2018-06-14T07:18:07.005Z,18.50
2018-06-14T07:20:34.337Z,18.65
2018-06-14T07:23:01.530Z,19.08
2018-06-14T07:25:28.880Z,18.69
2018-06-14T07:27:57.366Z,18.27
2018-06-14T07:30:24.683Z,18.26
2018-06-14T07:32:51.930Z,18.33
2018-06-14T07:35:19.218Z,18.42
2018-06-14T07:37:46.494Z,18.41
2018-06-14T07:40:13.825Z,17.97
2018-06-14T07:42:41.092Z,17.67
2018-06-14T07:45:08.527Z,17.86
2018-06-14T07:47:35.851Z,18.06
2018-06-14T07:50:03.253Z,18.19
2018-06-14T07:52:30.546Z,18.27
2018-06-14T07:54:57.851Z,18.14
2018-06-14T07:57:25.262Z,18.28
2018-06-14T07:59:52.521Z,18.38
2018-06-14T08:02:19.792Z,18.48
2018-06-14T08:04:47.123Z,18.46
2018-06-14T08:07:14.400Z,17.75
2018-06-14T08:09:41.660Z,18.27
2018-06-14T08:12:09.187Z,18.12
2018-06-14T08:14:36.566Z,18.22
2018-06-14T08:17:03.905Z,18.38
2018-06-14T08:19:31.234Z,18.48
2018-06-14T08:21:58.528Z,18.59
2018-06-14T08:24:25.818Z,18.65
2018-06-14T08:26:53.098Z,18.73
2018-06-14T08:29:20.456Z,18.82
2018-06-14T08:31:47.752Z,18.88
2018-06-14T08:34:15.027Z,19.05
2018-06-14T08:36:42.301Z,19.06
2018-06-14T08:39:09.843Z,19.07
2018-06-14T08:41:37.271Z,18.90
2018-06-14T08:44:04.661Z,19.02
2018-06-14T08:46:31.933Z,19.25
2018-06-14T08:48:59.565Z,19.40
2018-06-14T08:51:26.909Z,19.57
2018-06-14T08:53:54.172Z,19.87
2018-06-14T08:56:21.441Z,19.98
2018-06-14T08:58:48.666Z,20.05
2018-06-14T09:01:16.042Z,20.25
2018-06-14T09:03:43.284Z,20.61
2018-06-14T09:06:10.588Z,20.88
2018-06-14T09:08:37.797Z,21.15
2018-06-14T09:11:05.050Z,21.31
2018-06-14T09:13:32.332Z,21.21
2018-06-14T09:15:59.601Z,21.22
2018-06-14T09:18:26.866Z,21.09
2018-06-14T09:20:54.133Z,20.84
2018-06-14T09:23:21.417Z,20.29
2018-06-14T09:25:48.681Z,20.25
2018-06-14T09:28:15.890Z,20.50
2018-06-14T09:30:43.191Z,20.69
2018-06-14T09:33:10.859Z,20.79
2018-06-14T09:35:38.182Z,20.61
2018-06-14T09:38:05.424Z,20.52
2018-06-14T09:40:32.710Z,20.07
2018-06-14T09:42:59.993Z,20.27
2018-06-14T09:45:27.338Z,19.87
2018-06-14T09:47:54.598Z,20.04
2018-06-14T09:50:21.982Z,20.31
2018-06-14T09:52:49.167Z,20.19
2018-06-14T09:55:16.452Z,20.30
2018-06-14T09:57:43.831Z,20.03
2018-06-14T10:00:11.219Z,20.35
2018-06-14T10:02:39.125Z,20.21
2018-06-14T10:05:06.417Z,19.89
2018-06-14T10:07:33.664Z,19.86
2018-06-14T10:12:53.355Z,20.15
2018-06-14T10:15:20.740Z,19.76
2018-06-14T10:17:48.005Z,19.40
2018-06-14T10:20:15.238Z,19.20
2018-06-14T10:22:42.569Z,19.14
2018-06-14T10:25:09.841Z,18.40
2018-06-14T10:27:37.101Z,18.82
2018-06-14T10:30:04.455Z,19.09
2018-06-14T10:32:44.535Z,19.87
2018-06-14T10:35:11.862Z,20.84
2018-06-14T10:37:39.294Z,20.87
2018-06-14T10:40:06.571Z,20.50
2018-06-14T10:42:33.899Z,21.14
2018-06-14T10:45:01.194Z,21.70
2018-06-14T10:47:28.478Z,21.17
2018-06-14T10:49:55.805Z,20.86
2018-06-14T10:52:23.036Z,20.73
2018-06-14T10:54:57.213Z,18.74
2018-06-14T10:57:24.594Z,20.40
2018-06-14T10:59:51.972Z,20.68
2018-06-14T11:02:19.379Z,20.83
2018-06-14T11:04:46.673Z,20.49
2018-06-14T11:07:14.069Z,20.31
2018-06-14T11:09:41.409Z,20.75
2018-06-14T11:12:08.705Z,20.62
2018-06-14T11:14:35.966Z,19.64
2018-06-14T11:17:03.307Z,19.26
2018-06-14T11:19:30.677Z,19.64
2018-06-14T11:21:58.134Z,19.49
2018-06-14T11:24:25.411Z,19.63
2018-06-14T11:26:52.775Z,19.47
2018-06-14T11:29:20.100Z,19.67
2018-06-14T11:31:47.415Z,20.40
2018-06-14T11:34:14.720Z,20.96
2018-06-14T11:36:42.028Z,20.87
2018-06-14T11:39:09.268Z,20.53
2018-06-14T11:41:36.654Z,20.30
2018-06-14T11:44:04.110Z,20.28
2018-06-14T11:46:31.428Z,20.29
2018-06-14T11:48:58.718Z,20.10
2018-06-14T11:51:26.013Z,19.91
2018-06-14T11:54:09.497Z,20.24
2018-06-14T11:56:37.535Z,20.32
2018-06-14T11:59:04.887Z,20.21
2018-06-14T12:01:32.208Z,20.23
2018-06-14T12:03:59.626Z,20.84
2018-06-14T12:06:26.975Z,21.02
2018-06-14T12:08:54.256Z,21.10
2018-06-14T12:11:21.628Z,20.95
2018-06-14T12:13:48.979Z,21.01
2018-06-14T12:16:16.315Z,21.29
2018-06-14T12:18:43.488Z,21.33
2018-06-14T12:21:10.802Z,21.87
2018-06-14T12:23:38.065Z,21.96
2018-06-14T12:26:05.690Z,21.57
2018-06-14T12:28:32.981Z,21.64
2018-06-14T12:33:52.607Z,20.54
2018-06-14T12:36:20.546Z,20.47
2018-06-14T12:38:48.129Z,20.05
2018-06-14T12:41:15.446Z,20.00
2018-06-14T12:43:42.900Z,20.13
2018-06-14T12:46:10.138Z,20.49
2018-06-14T12:48:37.443Z,20.90
2018-06-14T12:51:04.809Z,21.12
2018-06-14T12:53:45.226Z,21.53
2018-06-14T12:56:12.579Z,21.68
2018-06-14T12:58:39.820Z,22.28
2018-06-14T13:01:07.121Z,22.81
2018-06-14T13:03:34.368Z,23.22
2018-06-14T13:06:01.769Z,23.69
2018-06-14T13:08:29.109Z,24.10
2018-06-14T13:10:56.425Z,23.86
2018-06-14T13:13:23.700Z,23.62
2018-06-14T13:15:51.294Z,23.27
2018-06-14T13:18:18.543Z,23.28
2018-06-14T13:20:45.845Z,23.43
2018-06-14T13:23:13.157Z,23.65
2018-06-14T13:25:40.617Z,23.65
2018-06-14T13:28:07.987Z,23.53
2018-06-14T13:30:35.415Z,23.72
2018-06-14T13:33:02.730Z,24.37
2018-06-14T13:35:30.086Z,24.21
2018-06-14T13:37:57.346Z,24.33
2018-06-14T13:40:24.727Z,24.52
2018-06-14T13:42:52.133Z,24.78
2018-06-14T13:45:19.360Z,25.24
2018-06-14T13:47:46.655Z,25.65
2018-06-14T13:50:15.019Z,25.50
2018-06-14T13:52:43.284Z,25.64
2018-06-14T13:55:10.605Z,25.28
2018-06-14T13:57:37.919Z,24.54
2018-06-14T14:00:05.252Z,23.85
2018-06-14T14:02:32.556Z,23.51
2018-06-14T14:04:59.811Z,23.29
2018-06-14T14:07:33.130Z,23.28
2018-06-14T14:10:00.587Z,23.42
2018-06-14T14:12:28.183Z,23.62
2018-06-14T14:14:58.012Z,23.60
2018-06-14T14:17:25.421Z,23.42
2018-06-14T14:19:52.703Z,23.31
2018-06-14T14:22:20.072Z,23.41
2018-06-14T14:24:47.404Z,23.46
2018-06-14T14:27:14.667Z,23.77
2018-06-14T14:29:41.953Z,24.42
2018-06-14T14:32:09.281Z,24.39
2018-06-14T14:34:36.623Z,24.70
2018-06-14T14:37:04.091Z,24.67
2018-06-14T14:39:31.344Z,24.80
2018-06-14T14:41:58.701Z,25.27
2018-06-14T14:44:26.011Z,25.44
2018-06-14T14:46:53.357Z,25.68
2018-06-14T14:49:20.931Z,25.68
2018-06-14T14:51:48.200Z,25.74
2018-06-14T14:54:15.435Z,26.05
2018-06-14T14:56:42.678Z,25.97
2018-06-14T14:59:10.016Z,25.37
2018-06-14T15:01:37.363Z,25.27
2018-06-14T15:04:04.815Z,25.17
2018-06-14T15:06:32.092Z,25.21
2018-06-14T15:08:59.336Z,24.98
2018-06-14T15:11:26.634Z,24.54
2018-06-14T15:13:54.071Z,23.93
2018-06-14T15:16:21.326Z,24.04
2018-06-14T15:18:48.655Z,24.32
2018-06-14T15:21:15.940Z,24.42
2018-06-14T15:23:43.273Z,24.56
2018-06-14T15:26:10.533Z,24.67
2018-06-14T15:28:37.851Z,24.92
2018-06-14T15:31:05.284Z,24.65
2018-06-14T15:33:34.166Z,24.23
2018-06-14T15:36:01.663Z,23.53
2018-06-14T15:38:29.013Z,24.01
2018-06-14T15:40:56.484Z,24.52
2018-06-14T15:43:23.745Z,24.91
2018-06-14T15:45:51.137Z,24.93
2018-06-14T15:48:18.493Z,25.11
2018-06-14T15:50:46.156Z,25.37
2018-06-14T15:53:15.106Z,25.19
2018-06-14T15:56:11.202Z,24.56
2018-06-14T15:58:38.571Z,24.08
2018-06-14T16:01:06.387Z,24.12
2018-06-14T16:03:33.638Z,24.00
2018-06-14T16:06:00.929Z,23.68
2018-06-14T16:08:28.297Z,23.38
2018-06-14T16:10:55.627Z,23.30
2018-06-14T16:13:22.902Z,23.22
2018-06-14T16:15:50.192Z,23.22
2018-06-14T16:18:17.621Z,23.44
2018-06-14T16:20:45.690Z,23.65
2018-06-14T16:23:12.982Z,23.69
2018-06-14T16:25:40.260Z,23.53
2018-06-14T16:28:07.517Z,23.33
2018-06-14T16:30:34.998Z,23.43
2018-06-14T16:33:02.320Z,23.66
2018-06-14T16:35:40.139Z,23.84
2018-06-14T16:38:08.084Z,23.80
2018-06-14T16:40:35.373Z,23.70
2018-06-14T16:43:02.858Z,23.76
2018-06-14T16:45:30.250Z,23.69
2018-06-14T16:50:50.279Z,23.28
2018-06-14T16:53:17.600Z,23.18
2018-06-14T16:55:44.833Z,23.00
2018-06-14T16:58:12.167Z,22.98
2018-06-14T17:00:39.563Z,23.04
2018-06-14T17:05:59.080Z,22.68
2018-06-14T17:08:26.371Z,22.72
2018-06-14T17:10:53.659Z,22.58
2018-06-14T17:13:20.965Z,22.58
2018-06-14T17:15:48.280Z,22.59
2018-06-14T17:18:15.595Z,22.38
2018-06-14T17:20:42.962Z,22.17
2018-06-14T17:23:10.309Z,21.95
2018-06-14T17:25:37.696Z,21.88
2018-06-14T17:28:04.975Z,21.90
2018-06-14T17:30:32.321Z,21.91
2018-06-14T17:32:59.621Z,21.88
2018-06-14T17:35:26.948Z,21.68
2018-06-14T17:37:54.268Z,21.62
2018-06-14T17:40:21.742Z,21.63
2018-06-14T17:42:49.060Z,21.68
2018-06-14T17:45:16.442Z,21.70
2018-06-14T17:47:43.848Z,21.55
2018-06-14T17:50:11.148Z,21.32
2018-06-14T17:52:38.451Z,21.36
2018-06-14T17:55:05.883Z,21.17
2018-06-14T17:57:33.155Z,21.10
2018-06-14T18:00:00.437Z,20.95
2018-06-14T18:02:27.768Z,20.87
2018-06-14T18:04:55.082Z,20.70
2018-06-14T18:07:22.368Z,20.60
2018-06-14T18:09:49.657Z,20.63
2018-06-14T18:12:16.979Z,20.63
2018-06-14T18:14:45.990Z,20.46
2018-06-14T18:17:13.495Z,20.38
2018-06-14T18:19:40.744Z,20.25
2018-06-14T18:22:08.061Z,20.10
2018-06-14T18:24:35.418Z,19.94
2018-06-14T18:27:02.775Z,19.83
2018-06-14T18:29:30.054Z,19.62
2018-06-14T18:31:57.401Z,19.62
2018-06-14T18:34:24.790Z,19.67
2018-06-14T18:36:52.116Z,19.60
2018-06-14T18:39:19.469Z,19.53
2018-06-14T18:41:46.847Z,19.54
2018-06-14T18:44:14.194Z,19.56
2018-06-14T18:46:41.457Z,19.46
2018-06-14T18:49:08.814Z,19.43
2018-06-14T18:51:36.076Z,19.45
2018-06-14T18:54:03.688Z,19.33
2018-06-14T18:56:31.025Z,19.24
2018-06-14T18:58:59.089Z,19.15
2018-06-14T19:01:27.304Z,19.08
2018-06-14T19:03:54.808Z,19.00
2018-06-14T19:06:22.881Z,18.90
2018-06-14T19:08:50.629Z,18.75
2018-06-14T19:11:18.093Z,18.66
2018-06-14T19:13:45.471Z,18.62
2018-06-14T19:16:12.757Z,18.57
2018-06-14T19:18:40.163Z,18.44
2018-06-14T19:21:07.588Z,18.37
2018-06-14T19:23:35.161Z,18.30
2018-06-14T19:26:02.612Z,18.28
2018-06-14T19:28:29.982Z,18.25
2018-06-14T19:30:57.399Z,18.13
2018-06-14T19:33:24.893Z,18.02
2018-06-14T19:35:52.515Z,17.91
2018-06-14T19:38:20.178Z,17.86
2018-06-14T19:41:07.199Z,17.81
2018-06-14T19:43:44.868Z,17.69
2018-06-14T19:46:16.792Z,17.70
2018-06-14T19:48:44.346Z,17.60
2018-06-14T19:51:11.705Z,17.54
2018-06-14T19:53:38.968Z,17.42
2018-06-14T19:56:06.291Z,17.38
2018-06-14T19:58:33.676Z,17.31
2018-06-14T20:01:01.389Z,17.28
2018-06-14T20:03:30.033Z,17.15
2018-06-14T20:05:57.705Z,17.14
2018-06-14T20:08:37.284Z,17.13
2018-06-14T20:11:08.569Z,17.07
2018-06-14T20:13:36.260Z,17.04
2018-06-14T20:16:04.056Z,17.06
2018-06-14T20:18:31.447Z,17.13
2018-06-14T20:20:59.009Z,17.17
2018-06-14T20:23:26.395Z,17.13
2018-06-14T20:25:53.944Z,17.05
2018-06-14T20:28:21.290Z,16.95
2018-06-14T20:30:48.656Z,16.82
2018-06-14T20:33:16.095Z,16.71
2018-06-14T20:35:43.436Z,16.67
2018-06-14T20:38:10.872Z,16.64
2018-06-14T20:40:38.248Z,16.63
2018-06-14T20:43:05.679Z,16.51
2018-06-14T20:45:33.170Z,16.45
2018-06-14T20:50:52.977Z,16.44
2018-06-14T20:53:20.415Z,16.42
2018-06-14T20:55:47.827Z,16.44
2018-06-14T20:58:15.280Z,16.35
2018-06-14T21:00:42.593Z,16.36
2018-06-14T21:03:09.987Z,16.32
2018-06-14T21:05:59.647Z,16.32
2018-06-14T21:08:26.983Z,16.35
2018-06-14T21:10:54.356Z,16.33
2018-06-14T21:13:21.632Z,16.27
2018-06-14T21:15:49.124Z,16.17
2018-06-14T21:18:16.456Z,16.14
2018-06-14T21:20:43.846Z,16.10
2018-06-14T21:23:11.293Z,16.05
2018-06-14T21:25:38.728Z,16.02
2018-06-14T21:28:06.234Z,16.03
2018-06-14T21:30:33.488Z,15.91
2018-06-14T21:33:00.810Z,15.86
2018-06-14T21:35:28.083Z,15.77
2018-06-14T21:37:55.388Z,15.84
2018-06-14T21:40:22.780Z,15.80
2018-06-14T21:42:50.155Z,15.84
2018-06-14T21:45:17.461Z,15.81
2018-06-14T21:47:44.866Z,15.73
2018-06-14T21:50:12.319Z,15.78
2018-06-14T21:52:39.638Z,15.71
2018-06-14T21:55:06.920Z,15.70
2018-06-14T21:57:34.265Z,15.73
2018-06-14T22:00:01.555Z,15.73
2018-06-14T22:02:28.852Z,15.66
2018-06-14T22:04:56.239Z,15.66
2018-06-14T22:07:23.549Z,15.64
2018-06-14T22:09:50.850Z,15.55
2018-06-14T22:12:18.158Z,15.50
2018-06-14T22:14:47.138Z,15.46
2018-06-14T22:17:14.476Z,15.47
2018-06-14T22:19:41.695Z,15.50
2018-06-14T22:22:08.991Z,15.47
2018-06-14T22:24:36.338Z,15.43
2018-06-14T22:27:03.860Z,15.35
2018-06-14T22:29:31.204Z,15.35
2018-06-14T22:31:58.595Z,15.39
2018-06-14T22:34:37.602Z,14.93
2018-06-14T22:37:04.833Z,15.43
2018-06-14T22:39:32.123Z,15.42
2018-06-14T22:41:59.474Z,15.38
2018-06-14T22:44:26.961Z,15.36
2018-06-14T22:46:54.264Z,15.28
2018-06-14T22:49:21.655Z,15.24
2018-06-14T22:52:03.026Z,15.17
2018-06-14T22:54:30.375Z,15.27
2018-06-14T22:56:57.777Z,15.26
2018-06-14T22:59:25.156Z,15.29
2018-06-14T23:01:52.705Z,15.27
2018-06-14T23:04:24.293Z,15.27
2018-06-14T23:06:51.637Z,15.16
2018-06-14T23:10:31.328Z,15.09
2018-06-14T23:12:58.677Z,15.08
2018-06-14T23:15:25.931Z,15.00
2018-06-14T23:17:53.340Z,15.00
2018-06-14T23:20:21.673Z,15.06
2018-06-14T23:22:50.020Z,15.05
2018-06-14T23:25:18.229Z,15.06
2018-06-14T23:27:45.653Z,15.07
2018-06-14T23:30:13.069Z,15.01
2018-06-14T23:32:40.401Z,14.93
2018-06-14T23:35:07.733Z,14.93
2018-06-14T23:37:34.976Z,14.92
2018-06-14T23:40:02.381Z,14.91
2018-06-14T23:42:29.710Z,14.87
2018-06-14T23:44:57.574Z,14.86
2018-06-14T23:47:25.231Z,14.88
2018-06-14T23:49:52.485Z,14.93
2018-06-14T23:52:19.805Z,14.92
2018-06-14T23:54:47.508Z,14.90
2018-06-14T23:57:14.838Z,14.93
2018-06-14T23:59:42.094Z,14.95
